createdAt,value
2022-10-17T00:01:54.578Z,16.00
2022-10-17T00:06:56.150Z,16.04
2022-10-17T00:11:57.682Z,16.08
2022-10-17T00:16:59.183Z,15.88
2022-10-17T00:22:00.711Z,15.80
2022-10-17T00:27:02.259Z,15.63
2022-10-17T00:32:03.812Z,15.85
2022-10-17T00:37:05.469Z,15.50
2022-10-17T00:42:07.120Z,15.70
2022-10-17T00:47:13.859Z,15.40
2022-10-17T00:52:21.451Z,15.35
2022-10-17T00:57:22.991Z,15.49
2022-10-17T01:02:25.248Z,15.34
2022-10-17T01:07:30.810Z,15.43
2022-10-17T01:12:59.528Z,15.47
2022-10-17T01:18:22.279Z,15.43
2022-10-17T01:23:35.774Z,15.46
2022-10-17T01:29:11.013Z,15.32
2022-10-17T01:34:22.135Z,15.42
2022-10-17T01:39:28.106Z,15.33
2022-10-17T01:45:00.141Z,15.27
2022-10-17T01:50:14.115Z,15.15
2022-10-17T01:55:22.911Z,15.23
2022-10-17T02:00:26.245Z,15.44
2022-10-17T02:05:39.168Z,15.52
2022-10-17T02:11:01.975Z,15.59
2022-10-17T02:16:15.489Z,15.51
2022-10-17T02:21:41.966Z,15.60
2022-10-17T02:26:58.532Z,15.60
2022-10-17T02:32:04.593Z,15.53
2022-10-17T02:37:08.063Z,15.30
2022-10-17T02:42:11.672Z,15.32
2022-10-17T02:47:25.698Z,15.36
2022-10-17T02:52:31.032Z,15.51
2022-10-17T02:57:40.380Z,15.30
2022-10-17T03:02:52.937Z,15.38
2022-10-17T03:07:55.531Z,15.30
2022-10-17T03:12:58.808Z,15.29
2022-10-17T03:18:00.450Z,15.19
2022-10-17T03:23:02.214Z,15.41
2022-10-17T03:28:05.516Z,15.31
2022-10-17T03:33:07.838Z,15.49
2022-10-17T03:38:09.476Z,15.49
2022-10-17T03:43:11.880Z,15.29
2022-10-17T03:48:14.728Z,15.27
2022-10-17T03:53:16.462Z,15.28
2022-10-17T03:58:18.070Z,15.27
2022-10-17T04:03:19.689Z,15.25
2022-10-17T04:08:22.170Z,15.30
2022-10-17T04:13:38.976Z,15.28
2022-10-17T04:18:41.678Z,15.43
2022-10-17T04:23:43.367Z,15.45
2022-10-17T04:28:56.557Z,15.29
2022-10-17T04:33:58.144Z,15.29
2022-10-17T04:39:02.910Z,15.43
2022-10-17T04:44:05.489Z,15.43
2022-10-17T04:49:11.250Z,15.17
2022-10-17T04:54:17.118Z,15.20
2022-10-17T04:59:22.189Z,15.24
2022-10-17T05:04:33.308Z,15.43
2022-10-17T05:09:35.412Z,15.43
2022-10-17T05:14:36.920Z,15.32
2022-10-17T05:19:38.942Z,15.45
2022-10-17T05:24:41.973Z,15.39
2022-10-17T05:29:45.649Z,15.34
2022-10-17T05:34:59.026Z,15.27
2022-10-17T05:40:01.436Z,15.36
2022-10-17T05:45:05.070Z,15.25
2022-10-17T05:50:08.530Z,15.44
2022-10-17T05:55:24.701Z,15.46
2022-10-17T06:00:26.877Z,15.49
2022-10-17T06:05:35.308Z,15.60
2022-10-17T06:10:38.458Z,15.69
2022-10-17T06:15:40.335Z,15.77
2022-10-17T06:20:45.409Z,15.83
2022-10-17T06:25:49.366Z,15.94
2022-10-17T06:30:51.814Z,15.96
2022-10-17T06:35:54.824Z,16.01
2022-10-17T06:41:09.641Z,16.08
2022-10-17T06:46:11.265Z,16.14
2022-10-17T06:51:16.800Z,16.23
2022-10-17T06:56:28.841Z,16.28
2022-10-17T07:01:46.086Z,16.31
2022-10-17T07:06:49.303Z,16.41
2022-10-17T07:11:54.063Z,16.48
2022-10-17T07:16:56.715Z,16.49
2022-10-17T07:21:59.781Z,16.56
2022-10-17T07:27:02.206Z,16.57
2022-10-17T07:32:06.454Z,16.64
2022-10-17T07:37:09.939Z,16.72
2022-10-17T07:42:14.567Z,16.77
2022-10-17T07:47:16.365Z,16.79
2022-10-17T07:52:18.479Z,16.88
2022-10-17T07:57:19.966Z,16.90
2022-10-17T08:02:24.499Z,16.94
2022-10-17T08:07:29.372Z,17.00
2022-10-17T08:12:34.192Z,17.07
2022-10-17T08:17:37.114Z,17.12
2022-10-17T08:22:38.606Z,17.18
2022-10-17T08:27:40.104Z,17.25
2022-10-17T08:32:41.996Z,17.31
2022-10-17T08:37:43.667Z,17.27
2022-10-17T08:43:10.939Z,17.29
2022-10-17T08:48:21.644Z,17.35
2022-10-17T08:53:38.505Z,17.40
2022-10-17T08:58:40.045Z,17.41
2022-10-17T09:04:12.955Z,17.55
2022-10-17T09:09:36.633Z,17.62
2022-10-17T09:14:48.734Z,17.62
2022-10-17T09:20:00.860Z,17.64
2022-10-17T09:25:07.291Z,17.66
2022-10-17T09:30:45.799Z,17.63
2022-10-17T09:35:48.578Z,17.62
2022-10-17T09:40:57.868Z,17.62
2022-10-17T09:46:22.615Z,17.67
2022-10-17T09:51:26.175Z,17.73
2022-10-17T09:56:28.038Z,17.77
2022-10-17T10:01:31.188Z,17.78
2022-10-17T10:06:33.066Z,17.80
2022-10-17T10:11:49.877Z,17.84
2022-10-17T10:16:53.749Z,17.88
2022-10-17T10:22:25.387Z,17.93
2022-10-17T10:27:27.935Z,17.94
2022-10-17T10:32:32.359Z,18.01
2022-10-17T10:37:40.159Z,18.08
2022-10-17T10:42:42.280Z,18.11
2022-10-17T10:47:58.648Z,18.20
2022-10-17T10:53:24.859Z,18.26
2022-10-17T10:58:42.026Z,18.28
2022-10-17T11:04:12.329Z,18.41
2022-10-17T11:09:24.282Z,18.42
2022-10-17T11:14:41.860Z,18.49
2022-10-17T11:19:56.491Z,18.51
2022-10-17T11:24:59.773Z,18.64
2022-10-17T11:30:01.710Z,18.63
2022-10-17T11:35:15.361Z,18.69
2022-10-17T11:40:31.382Z,18.79
2022-10-17T11:45:41.008Z,18.75
2022-10-17T11:56:10.023Z,18.98
2022-10-17T12:01:26.495Z,19.03
2022-10-17T12:06:48.099Z,19.15
2022-10-17T12:12:00.496Z,19.18
2022-10-17T12:17:02.706Z,19.21
2022-10-17T12:22:20.162Z,19.31
2022-10-17T12:27:32.700Z,19.37
2022-10-17T12:33:00.480Z,19.50
2022-10-17T12:37:58.771Z,19.72
2022-10-17T12:43:16.300Z,19.70
2022-10-17T12:48:36.295Z,19.76
2022-10-17T12:53:45.262Z,19.88
2022-10-17T12:58:49.127Z,20.00
2022-10-17T13:03:52.493Z,19.93
2022-10-17T13:09:04.161Z,20.02
2022-10-17T13:14:13.099Z,20.04
2022-10-17T13:19:17.748Z,20.05
2022-10-17T13:24:23.782Z,19.98
2022-10-17T13:29:25.956Z,20.05
2022-10-17T13:34:28.100Z,20.09
2022-10-17T13:39:52.447Z,20.04
2022-10-17T13:44:55.967Z,20.07
2022-10-17T13:49:58.066Z,20.07
2022-10-17T13:55:11.081Z,20.03
2022-10-17T14:00:20.861Z,20.02
2022-10-17T14:05:23.677Z,20.01
2022-10-17T14:10:27.461Z,20.01
2022-10-17T14:15:30.955Z,20.04
2022-10-17T14:21:29.209Z,20.01
2022-10-17T14:26:21.473Z,19.96
2022-10-17T14:31:26.108Z,19.95
2022-10-17T14:36:38.549Z,19.92
2022-10-17T14:41:44.215Z,19.92
2022-10-17T14:46:50.498Z,19.94
2022-10-17T14:52:18.382Z,19.85
2022-10-17T14:57:29.103Z,19.81
2022-10-17T15:02:31.144Z,19.82
2022-10-17T15:07:32.854Z,19.73
2022-10-17T15:12:34.454Z,19.71
2022-10-17T15:17:35.970Z,19.69
2022-10-17T15:22:37.484Z,19.58
2022-10-17T15:27:39.064Z,19.56
2022-10-17T15:32:40.562Z,19.54
2022-10-17T15:37:42.912Z,19.48
2022-10-17T15:42:44.518Z,19.41
2022-10-17T15:47:51.646Z,19.38
2022-10-17T15:52:53.486Z,19.31
2022-10-17T15:57:55.001Z,19.24
2022-10-17T16:02:56.546Z,19.22
2022-10-17T16:07:58.373Z,19.18
2022-10-17T16:12:59.856Z,19.13
2022-10-17T16:18:04.238Z,19.04
2022-10-17T16:23:08.450Z,19.00
2022-10-17T16:28:11.842Z,18.93
2022-10-17T16:33:13.577Z,18.88
2022-10-17T16:38:15.146Z,18.82
2022-10-17T16:43:16.634Z,18.76
2022-10-17T16:48:18.183Z,18.66
2022-10-17T16:53:19.729Z,18.68
2022-10-17T16:58:21.226Z,18.59
2022-10-17T17:03:22.744Z,18.62
2022-10-17T17:08:24.305Z,18.63
2022-10-17T17:13:26.552Z,18.63
2022-10-17T17:18:28.700Z,18.61
2022-10-17T17:23:31.028Z,18.58
2022-10-17T17:28:33.571Z,18.51
2022-10-17T17:33:35.152Z,18.43
2022-10-17T17:38:36.960Z,18.45
2022-10-17T17:43:38.438Z,18.43
2022-10-17T17:48:41.082Z,18.44
2022-10-17T17:53:42.607Z,18.24
2022-10-17T17:58:46.637Z,18.30
2022-10-17T18:03:49.866Z,18.29
2022-10-17T18:08:53.532Z,18.18
2022-10-17T18:13:56.856Z,18.16
2022-10-17T18:19:02.608Z,18.06
2022-10-17T18:24:07.851Z,18.03
2022-10-17T18:29:09.401Z,17.90
2022-10-17T18:34:10.893Z,17.86
2022-10-17T18:39:12.427Z,17.79
2022-10-17T18:44:15.437Z,17.76
2022-10-17T18:49:25.034Z,17.80
2022-10-17T18:54:26.795Z,17.54
2022-10-17T18:59:28.330Z,17.51
2022-10-17T19:04:29.844Z,17.43
2022-10-17T19:09:31.473Z,17.38
2022-10-17T19:14:33.005Z,17.41
2022-10-17T19:19:34.576Z,17.25
2022-10-17T19:24:36.105Z,17.37
2022-10-17T19:29:38.012Z,17.25
2022-10-17T19:34:39.498Z,17.15
2022-10-17T19:39:40.969Z,16.96
2022-10-17T19:44:42.462Z,17.12
2022-10-17T19:49:49.064Z,16.97
2022-10-17T19:54:51.508Z,16.92
2022-10-17T19:59:55.830Z,16.98
2022-10-17T20:05:13.890Z,16.96
2022-10-17T20:10:19.272Z,16.98
2022-10-17T20:15:20.806Z,16.93
2022-10-17T20:20:22.337Z,16.82
2022-10-17T20:25:23.909Z,16.97
2022-10-17T20:30:25.584Z,16.89
2022-10-17T20:35:27.137Z,16.78
2022-10-17T20:40:36.112Z,16.75
2022-10-17T20:45:50.649Z,16.64
2022-10-17T20:50:53.618Z,16.71
2022-10-17T20:56:07.206Z,16.63
2022-10-17T21:01:10.118Z,16.71
2022-10-17T21:06:11.736Z,16.88
2022-10-17T21:11:19.037Z,16.83
2022-10-17T21:16:20.609Z,16.86
2022-10-17T21:21:26.617Z,16.86
2022-10-17T21:26:29.154Z,16.82
2022-10-17T21:31:30.894Z,16.84
2022-10-17T21:36:32.489Z,16.61
2022-10-17T21:41:34.129Z,16.59
2022-10-17T21:46:35.609Z,16.67
2022-10-17T21:51:37.136Z,16.60
2022-10-17T21:56:38.702Z,16.71
2022-10-17T22:01:43.909Z,16.54
2022-10-17T22:06:47.558Z,16.55
2022-10-17T22:11:51.851Z,16.59
2022-10-17T22:16:53.625Z,16.52
2022-10-17T22:21:55.161Z,16.65
2022-10-17T22:26:56.722Z,16.57
2022-10-17T22:31:58.476Z,16.57
2022-10-17T22:37:00.185Z,16.62
2022-10-17T22:42:01.695Z,16.51
2022-10-17T22:47:03.365Z,16.63
2022-10-17T22:52:04.980Z,16.53
2022-10-17T22:57:06.520Z,16.39
2022-10-17T23:02:08.043Z,16.52
2022-10-17T23:07:13.965Z,16.49
2022-10-17T23:12:15.473Z,16.47
2022-10-17T23:17:17.016Z,16.54
2022-10-17T23:22:18.527Z,16.37
2022-10-17T23:27:20.094Z,16.26
2022-10-17T23:32:21.609Z,16.27
2022-10-17T23:37:23.147Z,16.36
2022-10-17T23:42:24.713Z,16.47
2022-10-17T23:47:26.213Z,16.46
2022-10-17T23:52:27.754Z,16.44
2022-10-17T23:57:29.617Z,16.40
